createdAt,value
2023-03-17T00:00:38.116Z,98345.06
2023-03-17T00:01:39.514Z,98346.47
2023-03-17T00:02:42.865Z,98342.78
2023-03-17T00:03:46.773Z,98339.72
2023-03-17T00:04:54.155Z,98337.88
2023-03-17T00:05:58.650Z,98341.56
2023-03-17T00:07:00.465Z,98336.50
2023-03-17T00:08:18.745Z,98334.78
2023-03-17T00:09:22.803Z,98338.03
2023-03-17T00:10:27.240Z,98338.47
2023-03-17T00:11:31.213Z,98334.78
2023-03-17T00:12:38.533Z,98339.56
2023-03-17T00:13:43.545Z,98334.03
2023-03-17T00:14:47.225Z,98334.34
2023-03-17T00:15:58.120Z,98334.34
2023-03-17T00:17:00.883Z,98335.09
2023-03-17T00:18:02.358Z,98335.41
2023-03-17T00:19:04.142Z,98332.94
2023-03-17T00:20:09.167Z,98332.03
2023-03-17T00:21:16.323Z,98338.81
2023-03-17T00:22:20.292Z,98341.69
2023-03-17T00:23:24.726Z,98337.72
2023-03-17T00:24:26.530Z,98336.47
2023-03-17T00:25:30.634Z,98326.84
2023-03-17T00:26:32.162Z,98328.03
2023-03-17T00:27:34.601Z,98324.06
2023-03-17T00:28:36.151Z,98330.03
2023-03-17T00:29:38.066Z,98325.75
2023-03-17T00:30:39.637Z,98322.06
2023-03-17T00:31:41.878Z,98325.59
2023-03-17T00:32:45.433Z,98319.94
2023-03-17T00:33:48.204Z,98328.81
2023-03-17T00:34:52.625Z,98330.19
2023-03-17T00:35:55.763Z,98321.28
2023-03-17T00:36:57.264Z,98326.66
2023-03-17T00:37:59.524Z,98334.31
2023-03-17T00:39:01.491Z,98322.97
2023-03-17T00:40:03.082Z,98325.25
2023-03-17T00:41:04.735Z,98322.34
2023-03-17T00:42:07.309Z,98314.38
2023-03-17T00:43:09.396Z,98312.69
2023-03-17T00:44:12.029Z,98316.06
2023-03-17T00:45:14.489Z,98316.84
2023-03-17T00:46:28.103Z,98305.16
2023-03-17T00:47:29.705Z,98311.78
2023-03-17T00:48:31.297Z,98299.34
2023-03-17T00:49:32.926Z,98310.38
2023-03-17T00:50:34.959Z,98297.97
2023-03-17T00:51:36.463Z,98301.31
2023-03-17T00:52:38.920Z,98300.88
2023-03-17T00:53:40.607Z,98290.91
2023-03-17T00:54:42.418Z,98291.66
2023-03-17T00:55:45.279Z,98287.38
2023-03-17T00:56:48.250Z,98291.22
2023-03-17T00:57:50.198Z,98290.31
2023-03-17T00:58:51.695Z,98292.91
2023-03-17T00:59:53.471Z,98287.38
2023-03-17T01:00:55.992Z,98285.25
2023-03-17T01:01:58.304Z,98275.91
2023-03-17T01:02:59.911Z,98273.41
2023-03-17T01:04:01.911Z,98273.72
2023-03-17T01:05:06.624Z,98281.88
2023-03-17T01:06:13.089Z,98272.38
2023-03-17T01:07:15.401Z,98272.53
2023-03-17T01:08:17.907Z,98269.44
2023-03-17T01:09:20.956Z,98266.66
2023-03-17T01:10:24.010Z,98264.06
2023-03-17T01:11:25.829Z,98263.91
2023-03-17T01:12:29.626Z,98260.84
2023-03-17T01:13:33.672Z,98268.69
2023-03-17T01:14:37.991Z,98258.09
2023-03-17T01:15:43.568Z,98252.56
2023-03-17T01:16:45.463Z,98255.19
2023-03-17T01:17:50.050Z,98255.31
2023-03-17T01:18:51.663Z,98256.84
2023-03-17T01:19:55.410Z,98256.84
2023-03-17T01:21:02.459Z,98259.28
2023-03-17T01:22:07.067Z,98266.03
2023-03-17T01:23:09.690Z,98263.44
2023-03-17T01:24:15.412Z,98267.59
2023-03-17T01:25:18.832Z,98268.03
2023-03-17T01:26:25.939Z,98261.75
2023-03-17T01:27:31.960Z,98262.22
2023-03-17T01:28:34.206Z,98256.56
2023-03-17T01:29:37.168Z,98259.47
2023-03-17T01:30:41.567Z,98255.31
2023-03-17T01:31:46.737Z,98257.16
2023-03-17T01:32:51.757Z,98256.41
2023-03-17T01:33:53.257Z,98264.81
2023-03-17T01:34:55.295Z,98260.53
2023-03-17T01:35:59.338Z,98258.25
2023-03-17T01:37:02.978Z,98260.38
2023-03-17T01:38:08.013Z,98257.00
2023-03-17T01:39:11.096Z,98263.31
2023-03-17T01:40:22.328Z,98259.63
2023-03-17T01:41:26.526Z,98259.47
2023-03-17T01:42:31.048Z,98254.28
2023-03-17T01:43:34.599Z,98254.88
2023-03-17T01:44:46.617Z,98249.50
2023-03-17T01:46:28.150Z,98250.75
2023-03-17T01:47:32.698Z,98249.50
2023-03-17T01:48:44.633Z,98249.50
2023-03-17T01:49:47.307Z,98255.34
2023-03-17T01:50:51.511Z,98249.34
2023-03-17T01:52:06.401Z,98246.75
2023-03-17T01:53:11.049Z,98242.59
2023-03-17T01:54:20.071Z,98248.44
2023-03-17T01:55:21.821Z,98243.81
2023-03-17T01:56:26.708Z,98239.06
2023-03-17T01:57:34.931Z,98248.44
2023-03-17T01:58:36.923Z,98245.06
2023-03-17T01:59:49.751Z,98243.22
2023-03-17T02:00:54.390Z,98241.22
2023-03-17T02:02:08.109Z,98247.50
2023-03-17T02:03:16.913Z,98240.59
2023-03-17T02:04:25.225Z,98243.97
2023-03-17T02:05:33.413Z,98243.78
2023-03-17T02:06:42.138Z,98240.00
2023-03-17T02:07:49.948Z,98243.34
2023-03-17T02:08:53.811Z,98240.75
2023-03-17T02:09:58.334Z,98239.03
2023-03-17T02:11:02.309Z,98237.34
2023-03-17T02:12:11.469Z,98239.50
2023-03-17T02:13:14.360Z,98234.47
2023-03-17T02:14:16.554Z,98232.03
2023-03-17T02:15:20.624Z,98233.84
2023-03-17T02:16:23.212Z,98235.06
2023-03-17T02:17:27.785Z,98234.00
2023-03-17T02:18:32.337Z,98225.41
2023-03-17T02:19:34.201Z,98230.19
2023-03-17T02:20:35.798Z,98223.75
2023-03-17T02:21:45.418Z,98227.28
2023-03-17T02:22:54.836Z,98222.34
2023-03-17T02:23:59.695Z,98231.41
2023-03-17T02:25:02.059Z,98229.72
2023-03-17T02:26:05.737Z,98222.97
2023-03-17T02:27:31.361Z,98221.88
2023-03-17T02:28:33.133Z,98215.31
2023-03-17T02:29:36.060Z,98214.06
2023-03-17T02:30:37.614Z,98210.09
2023-03-17T02:31:39.603Z,98213.63
2023-03-17T02:32:41.298Z,98208.09
2023-03-17T02:33:47.346Z,98212.38
2023-03-17T02:34:49.067Z,98203.47
2023-03-17T02:35:51.074Z,98208.56
2023-03-17T02:36:55.145Z,98211.03
2023-03-17T02:37:56.883Z,98206.69
2023-03-17T02:39:04.639Z,98207.34
2023-03-17T02:40:07.716Z,98208.84
2023-03-17T02:41:09.765Z,98212.38
2023-03-17T02:42:14.803Z,98205.31
2023-03-17T02:43:16.690Z,98203.63
2023-03-17T02:44:18.123Z,98205.78
2023-03-17T02:45:20.517Z,98200.88
2023-03-17T02:46:22.591Z,98204.13
2023-03-17T02:47:27.255Z,98211.94
2023-03-17T02:48:30.116Z,98209.00
2023-03-17T02:49:32.885Z,98209.78
2023-03-17T02:50:37.729Z,98212.38
2023-03-17T02:51:43.277Z,98212.53
2023-03-17T02:52:46.699Z,98203.66
2023-03-17T02:53:48.239Z,98205.47
2023-03-17T02:54:53.404Z,98204.72
2023-03-17T02:55:58.256Z,98201.66
2023-03-17T02:57:02.070Z,98202.28
2023-03-17T02:58:05.868Z,98204.72
2023-03-17T02:59:08.701Z,98207.03
2023-03-17T03:00:14.352Z,98201.50
2023-03-17T03:01:16.621Z,98200.28
2023-03-17T03:02:18.417Z,98210.53
2023-03-17T03:03:19.979Z,98205.31
2023-03-17T03:04:21.757Z,98205.03
2023-03-17T03:05:23.200Z,98205.66
2023-03-17T03:06:26.455Z,98207.78
2023-03-17T03:07:29.872Z,98207.31
2023-03-17T03:08:33.882Z,98202.44
2023-03-17T03:09:37.052Z,98217.31
2023-03-17T03:10:42.377Z,98213.63
2023-03-17T03:11:48.043Z,98207.94
2023-03-17T03:12:49.675Z,98215.59
2023-03-17T03:13:51.386Z,98211.13
2023-03-17T03:14:52.906Z,98213.13
2023-03-17T03:15:54.631Z,98206.53
2023-03-17T03:16:57.921Z,98202.13
2023-03-17T03:18:01.167Z,98197.53
2023-03-17T03:19:04.652Z,98194.75
2023-03-17T03:20:09.618Z,98194.78
2023-03-17T03:21:13.698Z,98198.75
2023-03-17T03:22:16.366Z,98191.09
2023-03-17T03:23:18.841Z,98194.63
2023-03-17T03:24:21.166Z,98198.75
2023-03-17T03:25:23.141Z,98199.34
2023-03-17T03:26:28.613Z,98195.22
2023-03-17T03:27:32.278Z,98188.00
2023-03-17T03:28:34.694Z,98189.66
2023-03-17T03:29:36.488Z,98185.84
2023-03-17T03:30:39.803Z,98198.72
2023-03-17T03:31:43.162Z,98191.97
2023-03-17T03:32:44.965Z,98196.44
2023-03-17T03:33:46.902Z,98195.66
2023-03-17T03:34:48.361Z,98199.50
2023-03-17T03:35:50.529Z,98195.03
2023-03-17T03:36:52.396Z,98197.97
2023-03-17T03:37:54.812Z,98197.97
2023-03-17T03:38:56.573Z,98184.47
2023-03-17T03:39:58.016Z,98188.44
2023-03-17T03:40:59.567Z,98181.72
2023-03-17T03:42:01.535Z,98184.94
2023-03-17T03:43:16.125Z,98186.94
2023-03-17T03:44:23.475Z,98186.31
2023-03-17T03:45:25.270Z,98187.53
2023-03-17T03:46:27.660Z,98186.94
2023-03-17T03:47:29.274Z,98191.41
2023-03-17T03:48:30.821Z,98188.47
2023-03-17T03:49:32.591Z,98191.84
2023-03-17T03:50:34.151Z,98189.72
2023-03-17T03:51:36.187Z,98188.94
2023-03-17T03:52:38.139Z,98184.31
2023-03-17T03:53:40.405Z,98184.50
2023-03-17T03:54:42.466Z,98190.91
2023-03-17T03:55:44.963Z,98186.31
2023-03-17T03:56:56.587Z,98197.34
2023-03-17T03:58:16.491Z,98194.59
2023-03-17T03:59:18.246Z,98196.84
2023-03-17T04:00:23.446Z,98204.53
2023-03-17T04:01:28.542Z,98199.16
2023-03-17T04:02:33.247Z,98195.31
2023-03-17T04:03:37.292Z,98192.75
2023-03-17T04:04:55.827Z,98186.31
2023-03-17T04:06:00.846Z,98189.06
2023-03-17T04:07:05.848Z,98180.34
2023-03-17T04:08:09.378Z,98186.59
2023-03-17T04:09:10.857Z,98177.44
2023-03-17T04:10:14.993Z,98187.88
2023-03-17T04:11:16.662Z,98185.72
2023-03-17T04:12:19.443Z,98174.97
2023-03-17T04:13:20.888Z,98176.38
2023-03-17T04:14:24.781Z,98170.06
2023-03-17T04:15:28.476Z,98171.75
2023-03-17T04:16:34.848Z,98167.47
2023-03-17T04:17:36.512Z,98171.00
2023-03-17T04:18:38.042Z,98168.22
2023-03-17T04:19:50.222Z,98171.75
2023-03-17T04:20:56.060Z,98177.91
2023-03-17T04:21:57.592Z,98173.00
2023-03-17T04:22:59.512Z,98177.28
2023-03-17T04:24:01.811Z,98164.25
2023-03-17T04:25:04.297Z,98164.84
2023-03-17T04:26:11.983Z,98165.94
2023-03-17T04:27:15.966Z,98161.81
2023-03-17T04:28:25.441Z,98154.59
2023-03-17T04:29:35.429Z,98162.56
2023-03-17T04:30:38.200Z,98156.88
2023-03-17T04:31:50.607Z,98153.84
2023-03-17T04:32:56.068Z,98156.28
2023-03-17T04:34:03.421Z,98156.59
2023-03-17T04:35:11.464Z,98159.97
2023-03-17T04:36:20.965Z,98159.81
2023-03-17T04:37:26.507Z,98164.25
2023-03-17T04:38:30.080Z,98162.09
2023-03-17T04:39:31.624Z,98151.34
2023-03-17T04:40:34.958Z,98158.41
2023-03-17T04:41:41.365Z,98159.03
2023-03-17T04:42:47.107Z,98154.56
2023-03-17T04:43:49.818Z,98159.66
2023-03-17T04:44:51.237Z,98154.28
2023-03-17T04:45:53.933Z,98149.38
2023-03-17T04:46:57.467Z,98154.88
2023-03-17T04:48:01.548Z,98150.00
2023-03-17T04:49:05.385Z,98153.97
2023-03-17T04:50:09.186Z,98149.81
2023-03-17T04:51:11.889Z,98147.69
2023-03-17T04:52:13.414Z,98159.34
2023-03-17T04:53:14.838Z,98162.25
2023-03-17T04:54:17.099Z,98159.97
2023-03-17T04:55:18.951Z,98156.44
2023-03-17T04:56:21.133Z,98160.13
2023-03-17T04:57:25.506Z,98164.09
2023-03-17T04:58:31.070Z,98162.13
2023-03-17T04:59:32.777Z,98168.09
2023-03-17T05:00:38.932Z,98169.94
2023-03-17T05:01:40.362Z,98170.38
2023-03-17T05:02:41.852Z,98173.72
2023-03-17T05:03:43.307Z,98175.44
2023-03-17T05:04:45.958Z,98181.25
2023-03-17T05:05:47.543Z,98185.69
2023-03-17T05:06:49.052Z,98176.34
2023-03-17T05:07:51.306Z,98185.84
2023-03-17T05:08:53.126Z,98174.34
2023-03-17T05:09:54.598Z,98175.25
2023-03-17T05:10:57.290Z,98175.72
2023-03-17T05:11:59.982Z,98173.44
2023-03-17T05:13:01.458Z,98177.44
2023-03-17T05:14:02.933Z,98169.31
2023-03-17T05:15:05.506Z,98165.75
2023-03-17T05:16:07.857Z,98165.50
2023-03-17T05:17:10.837Z,98158.56
2023-03-17T05:18:13.081Z,98155.34
2023-03-17T05:19:15.329Z,98161.63
2023-03-17T05:20:18.151Z,98155.34
2023-03-17T05:21:21.219Z,98159.81
2023-03-17T05:22:23.298Z,98163.34
2023-03-17T05:23:26.544Z,98156.56
2023-03-17T05:24:29.678Z,98159.34
2023-03-17T05:25:55.780Z,98163.78
2023-03-17T05:27:01.682Z,98162.41
2023-03-17T05:28:04.253Z,98158.56
2023-03-17T05:29:07.543Z,98151.97
2023-03-17T05:30:15.396Z,98151.19
2023-03-17T05:31:20.686Z,98149.06
2023-03-17T05:33:08.510Z,98142.94
2023-03-17T05:34:10.925Z,98143.88
2023-03-17T05:35:13.215Z,98141.28
2023-03-17T05:36:15.857Z,98149.38
2023-03-17T05:37:18.487Z,98150.94
2023-03-17T05:38:21.249Z,98157.66
2023-03-17T05:39:24.053Z,98159.50
2023-03-17T05:40:31.200Z,98155.06
2023-03-17T05:41:42.119Z,98162.13
2023-03-17T05:43:12.409Z,98156.91
2023-03-17T05:44:17.032Z,98162.41
2023-03-17T05:45:19.163Z,98161.16
2023-03-17T05:46:20.870Z,98166.09
2023-03-17T05:47:23.041Z,98161.13
2023-03-17T05:48:25.373Z,98174.91
2023-03-17T05:49:28.274Z,98169.13
2023-03-17T05:50:29.999Z,98178.59
2023-03-17T05:51:31.751Z,98171.69
2023-03-17T05:52:33.468Z,98174.31
2023-03-17T05:53:38.514Z,98168.06
2023-03-17T05:54:41.184Z,98164.72
2023-03-17T05:55:42.985Z,98161.94
2023-03-17T05:56:44.511Z,98162.41
2023-03-17T05:57:46.670Z,98157.34
2023-03-17T05:58:48.162Z,98160.72
2023-03-17T05:59:50.838Z,98153.69
2023-03-17T06:00:52.437Z,98158.25
2023-03-17T06:01:53.928Z,98158.88
2023-03-17T06:02:55.908Z,98156.13
2023-03-17T06:03:57.525Z,98155.19
2023-03-17T06:04:59.340Z,98163.63
2023-03-17T06:06:00.822Z,98157.66
2023-03-17T06:07:02.714Z,98155.94
2023-03-17T06:08:05.682Z,98152.56
2023-03-17T06:09:07.157Z,98152.91
2023-03-17T06:10:10.017Z,98154.09
2023-03-17T06:11:11.975Z,98149.69
2023-03-17T06:12:13.477Z,98157.06
2023-03-17T06:13:15.458Z,98146.47
2023-03-17T06:14:16.971Z,98145.41
2023-03-17T06:15:19.033Z,98155.50
2023-03-17T06:16:21.009Z,98148.63
2023-03-17T06:17:22.543Z,98151.22
2023-03-17T06:18:24.015Z,98149.38
2023-03-17T06:19:26.036Z,98135.13
2023-03-17T06:20:27.714Z,98136.19
2023-03-17T06:21:29.205Z,98131.75
2023-03-17T06:22:30.945Z,98136.63
2023-03-17T06:23:32.377Z,98140.44
2023-03-17T06:24:34.072Z,98136.09
2023-03-17T06:25:35.813Z,98136.81
2023-03-17T06:26:37.598Z,98128.47
2023-03-17T06:27:39.665Z,98125.31
2023-03-17T06:28:41.305Z,98126.78
2023-03-17T06:29:42.798Z,98125.03
2023-03-17T06:30:44.373Z,98124.44
2023-03-17T06:31:50.560Z,98128.81
2023-03-17T06:32:52.313Z,98120.25
2023-03-17T06:33:53.812Z,98121.38
2023-03-17T06:34:58.130Z,98124.06
2023-03-17T06:36:05.262Z,98125.50
2023-03-17T06:37:10.528Z,98120.84
2023-03-17T06:38:13.725Z,98122.00
2023-03-17T06:39:18.842Z,98122.69
2023-03-17T06:40:21.331Z,98124.88
2023-03-17T06:41:23.267Z,98121.66
2023-03-17T06:42:24.750Z,98126.16
2023-03-17T06:43:27.104Z,98123.97
2023-03-17T06:44:31.145Z,98130.56
2023-03-17T06:45:33.222Z,98135.84
2023-03-17T06:46:36.604Z,98138.03
2023-03-17T06:47:40.034Z,98144.13
2023-03-17T06:48:43.279Z,98146.06
2023-03-17T06:49:46.106Z,98148.38
2023-03-17T06:50:49.324Z,98143.97
2023-03-17T06:51:51.832Z,98146.41
2023-03-17T06:52:53.937Z,98150.69
2023-03-17T06:53:56.015Z,98148.50
2023-03-17T06:54:59.035Z,98158.75
2023-03-17T06:56:00.407Z,98162.34
2023-03-17T06:57:12.141Z,98161.78
2023-03-17T06:58:16.063Z,98159.81
2023-03-17T06:59:17.995Z,98161.63
2023-03-17T07:00:21.290Z,98159.50
2023-03-17T07:01:23.575Z,98167.63
2023-03-17T07:02:25.594Z,98167.78
2023-03-17T07:03:27.327Z,98171.53
2023-03-17T07:04:29.256Z,98169.88
2023-03-17T07:05:31.223Z,98170.66
2023-03-17T07:06:33.701Z,98172.06
2023-03-17T07:07:38.776Z,98175.53
2023-03-17T07:08:41.504Z,98179.81
2023-03-17T07:09:43.143Z,98170.31
2023-03-17T07:10:45.879Z,98182.00
2023-03-17T07:11:47.707Z,98168.03
2023-03-17T07:12:49.485Z,98169.63
2023-03-17T07:13:51.041Z,98176.53
2023-03-17T07:14:52.610Z,98181.13
2023-03-17T07:15:55.447Z,98178.50
2023-03-17T07:16:56.918Z,98178.38
2023-03-17T07:17:58.343Z,98177.94
2023-03-17T07:19:01.509Z,98179.16
2023-03-17T07:20:03.125Z,98173.91
2023-03-17T07:21:04.772Z,98177.50
2023-03-17T07:22:06.943Z,98172.16
2023-03-17T07:23:14.814Z,98168.47
2023-03-17T07:24:16.260Z,98164.53
2023-03-17T07:25:17.788Z,98167.25
2023-03-17T07:26:19.570Z,98169.63
2023-03-17T07:27:23.212Z,98164.88
2023-03-17T07:28:24.785Z,98160.19
2023-03-17T07:29:27.755Z,98159.38
2023-03-17T07:30:29.221Z,98158.75
2023-03-17T07:31:35.499Z,98166.28
2023-03-17T07:32:40.694Z,98156.00
2023-03-17T07:33:43.842Z,98161.31
2023-03-17T07:34:57.468Z,98165.50
2023-03-17T07:36:03.381Z,98156.50
2023-03-17T07:37:07.451Z,98163.69
2023-03-17T07:38:13.974Z,98151.03
2023-03-17T07:39:17.599Z,98156.47
2023-03-17T07:40:23.441Z,98146.28
2023-03-17T07:41:30.573Z,98141.16
2023-03-17T07:42:34.407Z,98142.00
2023-03-17T07:43:37.906Z,98144.69
2023-03-17T07:44:42.157Z,98146.63
2023-03-17T07:45:48.562Z,98148.00
2023-03-17T07:46:52.875Z,98146.97
2023-03-17T07:47:55.499Z,98143.69
2023-03-17T07:48:58.800Z,98138.13
2023-03-17T07:50:01.270Z,98140.03
2023-03-17T07:51:03.354Z,98141.09
2023-03-17T07:52:06.200Z,98138.22
2023-03-17T07:53:08.639Z,98128.91
2023-03-17T07:54:14.920Z,98142.34
2023-03-17T07:55:16.991Z,98143.16
2023-03-17T07:56:22.443Z,98141.22
2023-03-17T07:57:24.992Z,98144.09
2023-03-17T07:58:28.100Z,98140.72
2023-03-17T07:59:33.011Z,98139.69
2023-03-17T08:00:37.442Z,98141.56
2023-03-17T08:01:50.779Z,98132.59
2023-03-17T08:03:08.780Z,98139.69
2023-03-17T08:04:13.676Z,98142.44
2023-03-17T08:05:16.703Z,98144.56
2023-03-17T08:06:20.263Z,98142.41
2023-03-17T08:07:26.799Z,98146.69
2023-03-17T08:08:34.032Z,98144.50
2023-03-17T08:09:38.052Z,98146.50
2023-03-17T08:10:40.498Z,98139.91
2023-03-17T08:11:44.352Z,98150.84
2023-03-17T08:12:47.529Z,98151.38
2023-03-17T08:13:53.042Z,98145.91
2023-03-17T08:14:56.979Z,98140.63
2023-03-17T08:15:59.698Z,98145.47
2023-03-17T08:17:03.023Z,98151.47
2023-03-17T08:18:05.564Z,98146.13
2023-03-17T08:19:11.599Z,98130.50
2023-03-17T08:20:18.223Z,98125.66
2023-03-17T08:21:22.083Z,98130.94
2023-03-17T08:22:26.128Z,98129.03
2023-03-17T08:23:35.754Z,98116.28
2023-03-17T08:24:44.751Z,98115.91
2023-03-17T08:25:52.171Z,98115.97
2023-03-17T08:26:57.632Z,98121.09
2023-03-17T08:28:02.320Z,98111.44
2023-03-17T08:30:35.573Z,98122.38
2023-03-17T08:31:50.517Z,98118.72
2023-03-17T08:32:55.727Z,98126.75
2023-03-17T08:34:05.342Z,98119.19
2023-03-17T08:35:16.265Z,98125.97
2023-03-17T08:36:20.175Z,98112.44
2023-03-17T08:37:25.231Z,98121.88
2023-03-17T08:38:33.126Z,98131.59
2023-03-17T08:39:43.258Z,98121.13
2023-03-17T08:40:52.538Z,98120.41
2023-03-17T08:41:55.034Z,98117.34
2023-03-17T08:42:58.389Z,98111.06
2023-03-17T08:44:01.547Z,98113.22
2023-03-17T08:45:10.332Z,98113.66
2023-03-17T08:46:25.637Z,98111.97
2023-03-17T08:47:39.391Z,98110.72
2023-03-17T08:48:42.368Z,98108.44
2023-03-17T08:49:46.517Z,98099.72
2023-03-17T08:50:50.962Z,98098.91
2023-03-17T08:51:54.770Z,98099.06
2023-03-17T08:52:57.870Z,98107.06
2023-03-17T08:54:03.573Z,98098.91
2023-03-17T08:55:06.763Z,98104.09
2023-03-17T08:56:08.958Z,98103.97
2023-03-17T08:57:10.612Z,98104.91
2023-03-17T08:58:12.415Z,98101.59
2023-03-17T08:59:15.347Z,98103.56
2023-03-17T09:00:20.635Z,98108.94
2023-03-17T09:01:24.388Z,98104.03
2023-03-17T09:02:26.779Z,98098.16
2023-03-17T09:03:29.029Z,98103.13
2023-03-17T09:04:30.580Z,98110.50
2023-03-17T09:05:32.859Z,98101.63
2023-03-17T09:06:34.867Z,98101.25
2023-03-17T09:07:36.449Z,98094.97
2023-03-17T09:08:40.770Z,98095.41
2023-03-17T09:09:42.486Z,98099.63
2023-03-17T09:10:44.471Z,98101.91
2023-03-17T09:11:46.103Z,98092.91
2023-03-17T09:12:48.383Z,98092.69
2023-03-17T09:13:50.634Z,98095.75
2023-03-17T09:14:52.391Z,98087.09
2023-03-17T09:15:54.326Z,98083.38
2023-03-17T09:16:56.855Z,98083.75
2023-03-17T09:17:58.714Z,98083.00
2023-03-17T09:19:00.345Z,98084.16
2023-03-17T09:20:01.929Z,98089.06
2023-03-17T09:21:03.719Z,98088.59
2023-03-17T09:22:05.699Z,98080.66
2023-03-17T09:23:10.212Z,98082.88
2023-03-17T09:24:12.586Z,98074.06
2023-03-17T09:25:14.719Z,98071.31
2023-03-17T09:26:16.368Z,98075.06
2023-03-17T09:27:18.052Z,98073.16
2023-03-17T09:28:19.727Z,98068.84
2023-03-17T09:29:21.301Z,98069.16
2023-03-17T09:30:23.010Z,98071.25
2023-03-17T09:31:24.687Z,98066.13
2023-03-17T09:32:26.378Z,98073.13
2023-03-17T09:33:28.878Z,98074.41
2023-03-17T09:34:30.532Z,98071.50
2023-03-17T09:35:32.460Z,98070.88
2023-03-17T09:36:34.079Z,98076.56
2023-03-17T09:37:35.829Z,98067.84
2023-03-17T09:38:40.160Z,98068.22
2023-03-17T09:39:41.760Z,98066.66
2023-03-17T09:40:52.074Z,98065.78
2023-03-17T09:42:06.293Z,98071.13
2023-03-17T09:43:29.434Z,98066.13
2023-03-17T09:44:51.676Z,98073.88
2023-03-17T09:45:54.033Z,98078.38
2023-03-17T09:47:26.441Z,98076.38
2023-03-17T09:48:34.439Z,98074.78
2023-03-17T09:49:58.805Z,98075.59
2023-03-17T09:51:09.042Z,98071.03
2023-03-17T09:52:14.810Z,98071.09
2023-03-17T09:53:24.556Z,98061.75
2023-03-17T09:54:31.486Z,98056.09
2023-03-17T09:55:35.814Z,98063.31
2023-03-17T09:56:41.761Z,98064.06
2023-03-17T09:57:43.725Z,98060.25
2023-03-17T09:58:54.891Z,98064.44
2023-03-17T10:00:14.703Z,98062.16
2023-03-17T10:01:16.322Z,98061.78
2023-03-17T10:02:28.437Z,98070.50
2023-03-17T10:03:30.231Z,98067.09
2023-03-17T10:04:32.404Z,98070.13
2023-03-17T10:05:37.291Z,98073.16
2023-03-17T10:06:46.644Z,98075.06
2023-03-17T10:08:03.418Z,98063.69
2023-03-17T10:09:40.358Z,98073.91
2023-03-17T10:11:20.172Z,98069.00
2023-03-17T10:12:24.780Z,98058.03
2023-03-17T10:13:29.516Z,98059.94
2023-03-17T10:14:38.564Z,98064.84
2023-03-17T10:15:50.881Z,98056.88
2023-03-17T10:17:03.794Z,98062.19
2023-03-17T10:18:12.644Z,98066.72
2023-03-17T10:19:17.640Z,98057.25
2023-03-17T10:20:29.240Z,98056.13
2023-03-17T10:21:35.096Z,98055.38
2023-03-17T10:22:50.417Z,98054.22
2023-03-17T10:23:53.295Z,98048.94
2023-03-17T10:25:03.891Z,98052.34
2023-03-17T10:26:17.300Z,98046.66
2023-03-17T10:27:19.631Z,98053.09
2023-03-17T10:28:30.092Z,98046.66
2023-03-17T10:29:32.644Z,98052.69
2023-03-17T10:30:35.472Z,98050.03
2023-03-17T10:31:38.026Z,98054.53
2023-03-17T10:32:41.063Z,98054.97
2023-03-17T10:33:52.709Z,98053.44
2023-03-17T10:34:55.673Z,98055.72
2023-03-17T10:35:57.172Z,98051.53
2023-03-17T10:37:12.322Z,98057.19
2023-03-17T10:38:17.203Z,98057.91
2023-03-17T10:39:24.609Z,98050.75
2023-03-17T10:40:34.138Z,98050.75
2023-03-17T10:41:39.697Z,98059.03
2023-03-17T10:42:53.605Z,98046.50
2023-03-17T10:43:58.026Z,98049.75
2023-03-17T10:45:44.072Z,98053.59
2023-03-17T10:46:54.021Z,98048.22
2023-03-17T10:48:01.326Z,98044.56
2023-03-17T10:49:08.700Z,98043.97
2023-03-17T10:50:31.452Z,98046.59
2023-03-17T10:51:39.661Z,98043.38
2023-03-17T10:52:42.300Z,98044.69
2023-03-17T10:53:44.396Z,98043.03
2023-03-17T10:54:51.444Z,98043.59
2023-03-17T10:55:54.540Z,98038.34
2023-03-17T10:57:03.577Z,98043.28
2023-03-17T10:58:16.527Z,98035.97
2023-03-17T10:59:21.663Z,98025.84
2023-03-17T11:00:24.869Z,98028.50
2023-03-17T11:01:36.666Z,98019.06
2023-03-17T11:02:46.184Z,98016.72
2023-03-17T11:03:48.614Z,98022.53
2023-03-17T11:05:03.480Z,98014.19
2023-03-17T11:06:11.657Z,98014.53
2023-03-17T11:07:19.312Z,98019.50
2023-03-17T11:08:21.174Z,98019.78
2023-03-17T11:09:23.388Z,98013.25
2023-03-17T11:10:27.964Z,98015.94
2023-03-17T11:11:37.748Z,98010.69
2023-03-17T11:12:40.514Z,98012.97
2023-03-17T11:13:42.197Z,98010.28
2023-03-17T11:14:44.361Z,98009.84
2023-03-17T11:15:57.865Z,98008.53
2023-03-17T11:17:27.028Z,98013.03
2023-03-17T11:18:37.291Z,98008.03
2023-03-17T11:20:05.487Z,98010.06
2023-03-17T11:21:11.144Z,98012.97
2023-03-17T11:22:33.822Z,98010.75
2023-03-17T11:23:41.646Z,98012.28
2023-03-17T11:24:59.630Z,98008.75
2023-03-17T11:26:42.676Z,97998.34
2023-03-17T11:28:00.051Z,97991.06
2023-03-17T11:29:13.850Z,97982.31
2023-03-17T11:30:27.411Z,97982.69
2023-03-17T11:31:33.943Z,97977.38
2023-03-17T11:32:42.060Z,97975.88
2023-03-17T11:34:13.939Z,97976.56
2023-03-17T11:35:35.824Z,97977.91
2023-03-17T11:37:15.402Z,97973.25
2023-03-17T11:38:26.005Z,97968.16
2023-03-17T11:39:41.646Z,97973.44
2023-03-17T11:41:04.967Z,97972.13
2023-03-17T11:42:21.509Z,97972.78
2023-03-17T11:44:00.001Z,97975.63
2023-03-17T11:45:21.424Z,97971.84
2023-03-17T11:46:30.891Z,97977.75
2023-03-17T11:47:46.977Z,97971.56
2023-03-17T11:48:57.540Z,97968.97
2023-03-17T11:50:29.007Z,97967.88
2023-03-17T11:51:59.205Z,97964.69
2023-03-17T11:53:22.224Z,97971.09
2023-03-17T11:54:36.420Z,97961.94
2023-03-17T11:56:02.907Z,97962.28
2023-03-17T11:57:11.261Z,97974.88
2023-03-17T11:58:29.725Z,97971.75
2023-03-17T11:59:58.813Z,97964.84
2023-03-17T12:01:02.065Z,97961.13
2023-03-17T12:02:20.420Z,97954.56
2023-03-17T12:03:42.553Z,97958.28
2023-03-17T12:04:58.268Z,97961.00
2023-03-17T12:06:07.906Z,97950.75
2023-03-17T12:07:22.452Z,97944.81
2023-03-17T12:08:46.041Z,97949.22
2023-03-17T12:10:00.432Z,97959.56
2023-03-17T12:11:07.493Z,97952.16
2023-03-17T12:12:13.397Z,97953.16
2023-03-17T12:13:31.711Z,97951.13
2023-03-17T12:14:43.211Z,97955.72
2023-03-17T12:15:55.857Z,97954.22
2023-03-17T12:17:06.708Z,97941.47
2023-03-17T12:18:26.541Z,97937.31
2023-03-17T12:19:39.687Z,97943.78
2023-03-17T12:20:51.196Z,97940.22
2023-03-17T12:21:55.664Z,97947.94
2023-03-17T12:23:13.075Z,97937.56
2023-03-17T12:24:18.710Z,97943.28
2023-03-17T12:25:22.870Z,97940.34
2023-03-17T12:26:37.088Z,97943.41
2023-03-17T12:27:53.103Z,97934.06
2023-03-17T12:29:09.395Z,97945.16
2023-03-17T12:30:23.056Z,97939.31
2023-03-17T12:31:33.155Z,97939.91
2023-03-17T12:32:42.140Z,97934.78
2023-03-17T12:33:48.540Z,97924.53
2023-03-17T12:34:57.516Z,97926.97
2023-03-17T12:35:59.290Z,97926.50
2023-03-17T12:37:02.675Z,97929.53
2023-03-17T12:38:25.031Z,97918.34
2023-03-17T12:39:37.534Z,97923.34
2023-03-17T12:41:09.864Z,97914.44
2023-03-17T12:42:41.467Z,97917.56
2023-03-17T12:44:11.540Z,97920.88
2023-03-17T12:45:36.740Z,97918.94
2023-03-17T12:47:11.230Z,97931.03
2023-03-17T12:48:39.117Z,97929.75
2023-03-17T12:49:49.124Z,97930.19
2023-03-17T12:51:22.207Z,97930.41
2023-03-17T12:52:32.346Z,97945.66
2023-03-17T12:53:36.186Z,97936.97
2023-03-17T12:54:39.598Z,97933.75
2023-03-17T12:55:44.804Z,97927.19
2023-03-17T12:56:48.043Z,97932.47
2023-03-17T12:58:19.487Z,97919.03